Latest Weather Observations for Latrobe Valley

IDV60801

Issued at 6:35 pm EDT Wednesday 26 November 2014 (issued every 30 minutes, with the page automatically refreshed every 10 minutes)

About weather observations | Map of weather stations | Latest weather observations for VIC | Other Formats
Station Details ID: 085280 Name: LATROBE VALLEY AIRPORT Lat: -38.21 Lon: 146.47 Height: 55.7 m
Data from the previous 72 hours. | See also: Recent months at Latrobe Valley
Date/Time
EDT
Temp
°C
App
Temp
°C
Dew
Point
Rel
Hum
%
Delta-T
°C
Wind Press
QNH
hPa
Press
MSL
hPa
Rain
since 9 am
mm
Dir
 
Spd
km/h
Gust
km/h
Spd
kts
Gust
kts
26/06:30pm 15.6 10.8 10.4 71 2.7 WSW 26 37 14 20 1021.2 1021.1 0.2
26/06:00pm 15.6 11.7 12.0 79 2.0 WSW 24 32 13 17 1021.0 1020.9 0.2
26/05:30pm 15.4 11.1 12.2 81 1.7 WSW 26 37 14 20 1020.9 1020.8 0.2
26/05:11pm 15.7 13.1 13.9 89 1.0 WSW 20 30 11 16 1021.0 1020.9 0.2
26/05:00pm 15.0 13.4 15.0 100 0.0 WSW 17 24 9 13 1021.0 1020.9 0.2
26/04:58pm 15.0 13.4 15.0 100 0.0 WSW 17 24 9 13 1021.0 1020.9 0.2
26/04:52pm 14.4 13.0 14.4 100 0.0 W 15 19 8 10 1021.1 1021.0 0.2
26/04:51pm 14.3 12.8 14.3 100 0.0 W 15 19 8 10 1021.1 1021.0 0.2
26/04:33pm 14.0 11.0 13.8 99 0.1 SW 22 32 12 17 1021.2 1021.1 0.2
26/04:30pm 13.9 10.4 13.4 97 0.3 SW 24 28 13 15 1021.2 1021.1 0.0
26/04:12pm 14.9 10.4 13.9 94 0.6 SW 30 41 16 22 1021.1 1021.0 0.0
26/04:00pm 16.5 12.4 11.4 72 2.8 WSW 24 32 13 17 1020.8 1020.7 0.0
26/03:30pm 17.6 14.0 11.8 69 3.2 WSW 22 30 12 16 1020.6 1020.5 0.0
26/03:00pm 17.3 12.7 10.9 66 3.4 W 26 37 14 20 1020.7 1020.6 0.0
26/02:30pm 17.6 12.7 11.2 66 3.5 W 28 37 15 20 1020.6 1020.5 0.0
26/02:00pm 17.2 12.5 10.6 65 3.5 W 26 37 14 20 1020.6 1020.5 0.0
26/01:30pm 17.5 12.3 10.4 63 3.8 WNW 28 39 15 21 1020.7 1020.6 0.0
26/01:00pm 17.4 12.5 11.2 67 3.4 W 28 39 15 21 1020.9 1020.8 0.0
26/12:30pm 16.0 11.2 10.3 69 3.0 W 26 35 14 19 1020.8 1020.7 0.0
26/12:00pm 16.0 10.8 10.1 68 3.1 W 28 33 15 18 1020.8 1020.7 0.0
26/11:30am 15.8 10.5 9.7 67 3.2 W 28 35 15 19 1020.8 1020.7 0.0
26/11:00am 16.0 11.5 10.1 68 3.1 W 24 35 13 19 1020.7 1020.6 0.0
26/10:30am 15.0 10.0 9.4 69 2.9 W 26 35 14 19 1020.6 1020.5 0.0
26/10:00am 15.2 9.7 9.1 67 3.1 W 28 35 15 19 1020.7 1020.6 0.0
26/09:30am 14.8 9.4 9.6 71 2.7 W 28 37 15 20 1020.6 1020.5 0.0
26/09:00am 14.0 9.0 9.4 74 2.3 WNW 26 35 14 19 1020.7 1020.6 0.0
26/08:30am 12.8 8.8 8.9 77 2.0 WNW 20 28 11 15 1020.7 1020.6 0.0
26/08:00am 12.1 8.2 8.6 79 1.7 WNW 19 24 10 13 1020.5 1020.4 0.0
26/07:30am 11.8 8.3 8.6 81 1.6 WNW 17 26 9 14 1020.2 1020.1 0.0
26/07:00am 11.3 7.6 8.0 80 1.6 W 17 24 9 13 1020.0 1019.9 0.0
26/06:30am 10.7 7.0 8.1 84 1.3 W 17 22 9 12 1019.8 1019.7 0.0
26/06:00am 10.7 6.5 8.1 84 1.3 W 20 28 11 15 1019.6 1019.5 0.0
26/05:30am 10.1 6.9 8.5 90 0.8 W 15 20 8 11 1019.4 1019.3 0.0
26/05:00am 10.0 6.8 8.4 90 0.8 W 15 20 8 11 1019.3 1019.2 0.0
26/04:30am 10.2 6.9 8.0 86 1.1 W 15 20 8 11 1019.1 1019.0 0.0
26/04:00am 10.2 7.0 8.5 89 0.8 W 15 20 8 11 1019.2 1019.1 0.0
26/03:30am 9.9 7.1 8.7 92 0.6 W 13 17 7 9 1019.1 1019.0 0.0
26/03:00am 10.3 7.2 8.7 90 0.8 W 15 20 8 11 1019.3 1019.2 0.0
26/02:30am 10.5 7.5 9.1 91 0.7 W 15 19 8 10 1019.5 1019.4 0.0
26/02:00am 10.9 8.2 9.0 88 0.9 W 13 17 7 9 1019.8 1019.7 0.0
26/01:30am 11.4 8.7 9.1 86 1.2 W 13 19 7 10 1020.1 1020.0 0.0
26/01:00am 11.4 8.3 9.0 85 1.2 W 15 19 8 10 1020.4 1020.3 0.0
26/12:30am 12.2 8.8 9.2 82 1.5 W 17 22 9 12 1020.6 1020.5 0.0
26/12:00am 12.2 8.8 9.2 82 1.5 W 17 22 9 12 1020.8 1020.7 0.0
 
Date/Time
EDT
Temp
°C
App
Temp
°C
Dew
Point
Rel
Hum
%
Delta-T
°C
Wind Press
QNH
hPa
Press
MSL
hPa
Rain
since 9 am
mm
Dir
 
Spd
km/h
Gust
km/h
Spd
kts
Gust
kts
25/11:30pm 12.2 8.8 9.0 81 1.6 W 17 20 9 11 1021.0 1020.9 0.0
25/11:00pm 12.5 9.5 9.1 80 1.7 WNW 15 20 8 11 1021.1 1021.0 0.0
25/10:30pm 12.6 9.9 9.1 79 1.8 WNW 13 17 7 9 1021.0 1020.9 0.0
25/10:00pm 11.9 9.3 9.5 85 1.2 W 13 19 7 10 1021.0 1020.9 0.0
25/09:30pm 12.0 8.9 9.0 82 1.5 W 15 20 8 11 1020.7 1020.6 0.0
25/09:00pm 12.6 9.2 9.1 79 1.8 W 17 24 9 13 1020.4 1020.3 0.0
25/08:30pm 13.4 8.7 9.1 75 2.2 WSW 24 32 13 17 1020.1 1020.0 0.0
25/08:00pm 14.0 10.0 9.0 72 2.5 SW 20 30 11 16 1019.7 1019.6 0.0
25/07:30pm 15.0 9.4 8.7 66 3.2 SW 28 37 15 20 1019.3 1019.2 0.0
25/07:00pm 16.0 10.7 9.9 67 3.2 SW 28 39 15 21 1018.7 1018.6 0.0
25/06:30pm 16.9 11.6 9.8 63 3.7 SW 28 37 15 20 1018.1 1018.0 0.0
25/06:00pm 17.8 12.6 10.2 61 4.0 SW 28 37 15 20 1017.8 1017.7 0.0
25/05:30pm 17.4 12.6 10.3 63 3.8 SW 26 37 14 20 1017.6 1017.5 0.0
25/05:00pm 19.0 12.6 8.4 50 5.5 W 32 48 17 26 1017.5 1017.4 0.0
25/04:30pm 19.7 13.4 9.0 50 5.6 W 32 43 17 23 1017.5 1017.4 0.0
25/04:00pm 20.3 15.1 10.1 52 5.5 W 28 39 15 21 1017.5 1017.4 0.0
25/03:30pm 19.3 12.4 8.9 51 5.5 W 35 48 19 26 1017.7 1017.6 0.0
25/03:00pm 18.5 12.4 9.8 57 4.6 W 32 41 17 22 1017.8 1017.7 0.0
25/02:30pm 17.7 13.0 10.6 63 3.8 W 26 37 14 20 1017.8 1017.7 0.0
25/02:00pm 18.7 12.6 10.5 59 4.4 W 33 46 18 25 1017.9 1017.8 0.0
25/01:30pm 17.5 11.5 10.1 62 3.9 W 32 48 17 26 1017.8 1017.7 0.0
25/01:00pm 15.7 10.3 9.6 67 3.2 W 28 37 15 20 1017.9 1017.8 0.0
25/12:30pm 16.8 13.2 11.9 73 2.7 WNW 22 32 12 17 1017.9 1017.8 0.0
25/12:01pm 14.2 7.9 11.2 82 1.6 W 35 54 19 29 1018.1 1018.0 0.0
25/12:00pm 14.2 7.5 11.0 81 1.7 W 37 54 20 29 1018.0 1017.9 0.0
25/11:50am 15.1 8.4 9.5 69 2.9 W 35 56 19 30 1017.7 1017.6 0.0
25/11:30am 16.8 12.1 12.1 74 2.6 W 28 37 15 20 1017.5 1017.4 0.0
25/11:10am 14.4 10.1 13.3 93 0.6 W 28 46 15 25 1017.5 1017.4 0.0
25/11:09am 13.9 9.0 12.6 92 0.7 W 30 46 16 25 1017.5 1017.4 0.0
25/11:00am 12.9 7.2 11.8 93 0.6 WNW 33 46 18 25 1017.5 1017.4 0.0
25/10:55am 12.7 6.4 11.1 90 0.8 WNW 35 54 19 29 1017.6 1017.5 0.0
25/10:50am 13.2 6.8 10.6 84 1.4 WNW 35 54 19 29 1017.5 1017.4 0.0
25/10:30am 16.1 10.4 11.7 75 2.4 W 33 46 18 25 1016.9 1016.8 0.0
25/10:00am 15.1 10.5 12.2 83 1.6 W 28 41 15 22 1016.8 1016.7 0.0
25/09:53am 13.6 8.1 12.0 90 0.9 W 32 41 17 22 1016.7 1016.6 0.0
25/09:30am 13.1 7.0 10.6 85 1.3 W 33 52 18 28 1016.6 1016.5 0.0
25/09:00am 14.4 8.3 10.6 78 2.0 W 33 46 18 25 1016.1 1016.0 8.0
25/08:30am 13.4 7.5 10.4 82 1.6 W 32 41 17 22 1015.7 1015.6 8.0
25/08:09am 13.6 6.9 9.8 78 2.0 W 35 54 19 29 1015.2 1015.1 8.0
25/08:00am 13.3 6.9 9.5 78 1.9 W 33 50 18 27 1015.1 1015.0 8.0
25/07:42am 12.5 6.7 9.3 81 1.6 WNW 30 48 16 26 1014.9 1014.8 8.0
25/07:30am 12.3 6.1 9.9 85 1.2 WNW 33 46 18 25 1014.8 1014.7 8.0
25/07:00am 11.7 6.1 8.9 83 1.4 WNW 28 39 15 21 1014.7 1014.6 8.0
25/06:30am 11.0 5.8 8.8 86 1.1 WNW 26 37 14 20 1014.3 1014.2 8.0
25/06:00am 10.7 5.9 8.8 88 0.9 W 24 32 13 17 1014.0 1013.9 8.0
25/05:30am 10.2 4.7 9.0 92 0.6 W 28 37 15 20 1013.5 1013.4 8.0
25/05:00am 10.1 5.3 8.9 92 0.6 W 24 33 13 18 1013.3 1013.2 8.0
25/04:30am 10.1 5.3 8.9 92 0.6 W 24 32 13 17 1012.8 1012.8 8.0
25/04:00am 10.1 5.7 8.9 92 0.6 W 22 30 12 16 1012.7 1012.7 8.0
25/03:30am 10.5 6.9 10.0 97 0.3 W 19 24 10 13 1012.9 1012.9 8.0
25/03:00am 10.4 6.6 9.8 96 0.3 WNW 20 24 11 13 1012.8 1012.8 8.0
25/02:30am 10.8 6.6 9.9 94 0.5 WNW 22 32 12 17 1012.7 1012.7 8.0
25/02:00am 11.6 7.7 10.8 95 0.4 WNW 22 33 12 18 1012.5 1012.5 8.0
25/01:30am 11.3 8.0 10.8 97 0.3 W 19 24 10 13 1012.5 1012.5 8.0
25/01:00am 11.7 8.9 11.5 99 0.1 W 17 22 9 12 1012.7 1012.7 8.0
25/12:30am 11.9 9.1 11.3 96 0.3 W 17 22 9 12 1012.6 1012.6 8.0
25/12:00am 12.4 9.2 11.9 97 0.3 W 20 26 11 14 1012.4 1012.4 8.0
 
Date/Time
EDT
Temp
°C
App
Temp
°C
Dew
Point
Rel
Hum
%
Delta-T
°C
Wind Press
QNH
hPa
Press
MSL
hPa
Rain
since 9 am
mm
Dir
 
Spd
km/h
Gust
km/h
Spd
kts
Gust
kts
24/11:30pm 12.5 9.3 12.0 97 0.3 W 20 30 11 16 1012.2 1012.2 8.0
24/11:00pm 12.6 9.6 11.8 95 0.4 W 19 28 10 15 1012.3 1012.3 8.0
24/10:30pm 12.4 9.5 11.0 91 0.7 W 17 22 9 12 1012.0 1012.0 7.8
24/10:00pm 12.7 8.5 11.1 90 0.8 W 24 32 13 17 1011.6 1011.6 7.8
24/09:30pm 12.8 8.4 11.7 93 0.6 WSW 26 32 14 17 1011.4 1011.4 7.8
24/09:24pm 12.7 8.4 11.9 95 0.4 WSW 26 33 14 18 1011.3 1011.3 7.8
24/09:23pm 12.8 8.1 12.0 95 0.4 WSW 28 33 15 18 1011.2 1011.2 7.8
24/09:01pm 13.6 8.8 13.0 96 0.3 SW 30 52 16 28 1010.5 1010.5 7.8
24/09:00pm 13.7 9.4 13.1 96 0.3 SW 28 52 15 28 1010.4 1010.4 7.8
24/08:49pm 14.5 11.0 13.5 94 0.6 SW 24 30 13 16 1010.0 1010.0 7.8
24/08:30pm 14.7 11.1 13.2 91 0.8 WSW 24 32 13 17 1009.4 1009.4 7.8
24/08:00pm 14.9 11.9 13.8 93 0.6 WSW 22 32 12 17 1009.2 1009.2 7.8
24/07:30pm 15.0 12.2 14.2 95 0.5 WSW 22 32 12 17 1009.2 1009.2 7.8
24/07:00pm 15.2 12.7 15.2 100 0.0 WSW 22 32 12 17 1008.3 1008.3 7.8
24/06:43pm 15.5 11.0 15.3 99 0.1 SW 33 46 18 25 1007.7 1007.6 7.8
24/06:37pm 15.4 10.5 15.2 99 0.1 SW 35 48 19 26 1007.4 1007.3 7.6
24/06:30pm 15.6 10.8 15.6 100 0.0 SW 35 48 19 26 1007.1 1007.0 7.6
24/06:22pm 15.6 12.1 15.6 100 0.0 WSW 28 46 15 25 1006.8 1006.7 7.6
24/06:10pm 17.3 16.2 17.3 100 0.0 WSW 19 24 10 13 1006.4 1006.3 6.2
24/06:00pm 17.5 18.4 17.5 100 0.0 W 9 19 5 10 1006.0 1005.9 5.8
24/05:59pm 17.6 18.5 17.6 100 0.0 W 9 19 5 10 1006.0 1005.9 5.8
24/05:54pm 17.7 19.1 17.7 100 0.0 WSW 7 13 4 7 1006.0 1005.9 5.8
24/05:42pm 17.7 18.7 17.7 100 0.0 WSW 9 13 5 7 1006.0 1005.9 5.6
24/05:30pm 17.4 18.2 17.4 100 0.0 WNW 9 13 5 7 1005.6 1005.5 5.2
24/05:14pm 17.2 18.0 17.2 100 0.0 N 9 13 5 7 1005.3 1005.2 5.2
24/05:01pm 17.1 18.2 17.1 100 0.0 NE 7 13 4 7 1005.4 1005.3 5.0
24/05:00pm 17.1 18.2 17.1 100 0.0 NE 7 13 4 7 1005.3 1005.2 5.0
24/04:42pm 17.3 17.7 17.3 100 0.0 NE 11 17 6 9 1005.2 1005.1 4.6
24/04:30pm 17.3 17.0 17.3 100 0.0 ENE 15 24 8 13 1005.2 1005.1 4.2
24/04:07pm 17.3 16.6 17.3 100 0.0 E 17 24 9 13 1005.0 1004.9 4.2
24/04:00pm 17.2 16.8 17.2 100 0.0 E 15 24 8 13 1005.3 1005.2 4.0
24/03:49pm 17.2 17.2 17.2 100 0.0 ENE 13 19 7 10 1005.6 1005.5 3.6
24/03:44pm 17.3 17.7 17.3 100 0.0 ENE 11 17 6 9 1005.8 1005.7 3.2
24/03:30pm 17.4 18.2 17.4 100 0.0 ENE 9 13 5 7 1005.8 1005.7 2.4
24/03:26pm 17.5 18.0 17.5 100 0.0 NE 11 17 6 9 1005.9 1005.8 2.2
24/03:00pm 17.7 18.3 17.7 100 0.0 NNE 11 20 6 11 1006.2 1006.1 1.2
24/02:45pm 17.6 17.4 17.6 100 0.0 NNE 15 20 8 11 1006.0 1005.9 1.2
24/02:34pm 17.5 17.6 17.5 100 0.0 NW 13 19 7 10 1006.9 1006.8 1.0
24/02:30pm 17.5 17.6 17.5 100 0.0 NW 13 19 7 10 1007.5 1007.4 1.0
24/02:00pm 18.1 18.8 17.9 99 0.1 N 11 13 6 7 1006.1 1006.0 0.8
24/01:30pm 17.6 17.4 17.6 100 0.0 SW 15 22 8 12 1008.0 1007.9 0.6
24/01:00pm 17.6 17.5 17.0 96 0.4 WSW 13 17 7 9 1008.9 1008.9 0.2
24/12:30pm 17.8 16.3 15.4 86 1.4 WSW 17 20 9 11 1009.3 1009.3 0.2
24/12:00pm 17.7 16.0 15.7 88 1.2 WSW 19 24 10 13 1009.6 1009.6 0.2
24/11:30am 17.7 16.0 15.7 88 1.2 WSW 19 22 10 12 1009.7 1009.7 0.2
24/11:00am 18.0 17.4 16.7 92 0.8 W 15 19 8 10 1009.9 1009.9 0.2
24/10:30am 17.3 17.8 16.5 95 0.5 WSW 9 15 5 8 1009.7 1009.7 0.2
24/10:00am 16.9 17.4 15.6 92 0.8 ESE 7 13 4 7 1009.9 1009.9 0.0
24/09:30am 16.4 15.5 14.8 90 0.9 ENE 13 19 7 10 1009.5 1009.5 0.0
24/09:00am 15.8 13.6 14.3 91 0.9 ENE 19 24 10 13 1008.2 1008.2 0.0
24/08:30am 15.9 15.1 13.9 88 1.1 NE 11 13 6 7 1009.4 1009.4 0.0
24/08:00am 15.6 14.7 13.6 88 1.1 ENE 11 19 6 10 1009.3 1009.3 0.0
24/07:30am 14.9 14.2 13.1 89 1.0 E 9 17 5 9 1009.7 1009.7 0.0
24/07:00am 14.3 13.8 12.5 89 1.0 E 7 11 4 6 1010.1 1010.1 0.0
24/06:30am 14.0 12.8 11.7 86 1.2 E 9 15 5 8 1009.7 1009.7 0.0
24/06:00am 13.4 12.2 10.4 82 1.6 ENE 7 13 4 7 1009.8 1009.8 0.0
24/05:30am 13.3 11.6 9.9 80 1.8 E 9 17 5 9 1009.9 1009.9 0.0
24/05:00am 13.2 11.4 9.6 79 1.8 E 9 13 5 7 1010.0 1010.0 0.0
24/04:30am 11.9 10.4 9.1 83 1.4 ENE 7 9 4 5 1010.2 1010.2 0.0
24/04:00am 13.3 11.2 8.2 71 2.5 E 9 13 5 7 1010.2 1010.2 0.0
24/03:30am 12.9 11.2 8.4 74 2.2 ENE 7 11 4 6 1010.8 1010.8 0.0
24/03:00am 13.7 11.8 9.0 73 2.4 E 9 13 5 7 1011.2 1011.2 0.0
24/02:30am 13.8 12.3 9.0 73 2.4 E 7 13 4 7 1011.8 1011.8 0.0
24/02:00am 13.9 12.4 9.3 74 2.4 E 7 11 4 6 1012.4 1012.4 0.0
24/01:30am 13.5 12.4 10.5 82 1.6 ENE 7 11 4 6 1013.1 1013.1 0.0
24/01:00am 14.2 12.4 9.6 74 2.4 ENE 9 11 5 6 1013.0 1013.0 0.0
24/12:30am 14.7 13.4 9.9 73 2.5 ENE 7 13 4 7 1013.4 1013.3 0.0
24/12:00am 14.8 13.1 10.0 73 2.5 E 9 13 5 7 1013.8 1013.7 0.0
 
Date/Time
EDT
Temp
°C
App
Temp
°C
Dew
Point
Rel
Hum
%
Delta-T
°C
Wind Press
QNH
hPa
Press
MSL
hPa
Rain
since 9 am
mm
Dir
 
Spd
km/h
Gust
km/h
Spd
kts
Gust
kts
23/11:30pm 15.1 13.5 10.1 72 2.6 E 9 17 5 9 1014.2 1014.1 0.0
23/11:00pm 15.2 13.2 10.0 71 2.7 E 11 15 6 8 1014.3 1014.2 0.0
23/10:30pm 15.7 12.9 10.0 69 3.0 ENE 15 26 8 14 1014.8 1014.7 0.0
23/10:00pm 15.8 13.2 10.8 72 2.7 ENE 15 24 8 13 1014.6 1014.5 0.0
23/09:30pm 16.5 13.6 11.0 70 3.0 ENE 17 24 9 13 1014.8 1014.7 0.0
23/09:00pm 16.9 13.5 10.5 66 3.4 ENE 19 28 10 15 1014.4 1014.3 0.0
23/08:30pm 17.5 14.1 11.3 67 3.4 NE 20 28 11 15 1014.1 1014.0 0.0
23/08:00pm 18.2 14.9 11.7 66 3.6 NE 20 26 11 14 1014.1 1014.0 0.0
23/07:30pm 18.8 16.0 11.4 62 4.1 NE 17 24 9 13 1013.8 1013.7 0.0
23/07:00pm 20.0 18.5 12.0 60 4.5 ENE 11 20 6 11 1013.4 1013.3 0.0

Other Formats:

Comma delimited format used in spreadsheet applications
http://www.bom.gov.au/fwo/IDV60801/IDV60801.94891.axf

JavaScript Object Notation format (JSON) in row-major order
http://www.bom.gov.au/fwo/IDV60801/IDV60801.94891.json